createdAt,value
2019-01-26T00:00:45.853Z,4.07
2019-01-26T00:03:12.535Z,4.10
2019-01-26T00:05:38.533Z,4.13
2019-01-26T00:08:05.265Z,4.80
2019-01-26T00:10:31.251Z,4.00
2019-01-26T00:12:57.211Z,4.63
2019-01-26T00:15:23.211Z,4.60
2019-01-26T00:17:49.166Z,4.03
2019-01-26T00:20:15.211Z,4.70
2019-01-26T00:22:41.159Z,3.47
2019-01-26T00:25:07.131Z,3.70
2019-01-26T00:27:33.865Z,3.60
2019-01-26T00:29:59.836Z,4.00
2019-01-26T00:32:25.876Z,3.80
2019-01-26T00:34:51.978Z,3.60
2019-01-26T00:37:18.068Z,4.00
2019-01-26T00:39:45.167Z,4.40
2019-01-26T00:42:10.834Z,3.40
2019-01-26T00:44:36.811Z,3.67
2019-01-26T00:47:02.811Z,3.20
2019-01-26T00:49:28.774Z,4.43
2019-01-26T00:51:54.765Z,4.20
2019-01-26T00:54:20.716Z,4.53
2019-01-26T00:56:46.713Z,3.60
2019-01-26T00:59:12.696Z,4.20
2019-01-26T01:01:38.663Z,3.13
2019-01-26T01:04:04.639Z,3.43
2019-01-26T01:06:31.353Z,3.80
2019-01-26T01:08:57.327Z,3.60
2019-01-26T01:11:23.291Z,3.50
2019-01-26T01:13:49.308Z,3.40
2019-01-26T01:16:15.259Z,3.47
2019-01-26T01:18:42.033Z,4.20
2019-01-26T01:21:07.995Z,4.17
2019-01-26T01:23:34.017Z,3.77
2019-01-26T01:25:59.997Z,3.47
2019-01-26T01:28:26.763Z,4.37
2019-01-26T01:30:52.712Z,3.70
2019-01-26T01:33:18.674Z,3.83
2019-01-26T01:35:44.634Z,3.30
2019-01-26T01:38:10.572Z,3.60
2019-01-26T01:40:36.545Z,3.77
2019-01-26T01:43:02.509Z,3.33
2019-01-26T01:45:28.503Z,2.83
2019-01-26T01:47:54.481Z,3.50
2019-01-26T01:50:20.462Z,3.90
2019-01-26T01:52:46.439Z,4.27
2019-01-26T01:55:13.161Z,3.57
2019-01-26T01:57:39.115Z,3.20
2019-01-26T02:00:05.138Z,2.93
2019-01-26T02:02:31.136Z,4.77
2019-01-26T02:04:57.135Z,3.10
2019-01-26T02:07:23.100Z,3.87
2019-01-26T02:09:49.818Z,3.47
2019-01-26T02:12:16.540Z,3.17
2019-01-26T02:14:43.251Z,4.20
2019-01-26T02:17:09.224Z,2.67
2019-01-26T02:19:35.947Z,2.37
2019-01-26T02:22:01.965Z,2.40
2019-01-26T02:24:27.942Z,2.37
2019-01-26T02:26:53.940Z,2.10
2019-01-26T02:29:20.651Z,2.30
2019-01-26T02:31:46.635Z,1.53
2019-01-26T02:34:12.612Z,2.20
2019-01-26T02:36:38.562Z,1.97
2019-01-26T02:39:05.266Z,1.73
2019-01-26T02:41:31.227Z,2.20
2019-01-26T02:43:57.195Z,2.23
2019-01-26T02:46:23.156Z,1.60
2019-01-26T02:48:49.886Z,1.53
2019-01-26T02:51:16.598Z,1.60
2019-01-26T02:53:42.615Z,1.27
2019-01-26T02:56:08.580Z,1.30
2019-01-26T02:58:34.600Z,1.50
2019-01-26T03:01:01.322Z,1.57
2019-01-26T03:03:27.339Z,2.40
2019-01-26T03:05:54.073Z,1.63
2019-01-26T03:08:20.054Z,1.63
2019-01-26T03:10:46.049Z,2.10
2019-01-26T03:13:12.741Z,1.60
2019-01-26T03:15:38.739Z,2.30
2019-01-26T03:18:04.711Z,1.87
2019-01-26T03:20:30.707Z,1.00
2019-01-26T03:22:56.700Z,1.70
2019-01-26T03:25:22.704Z,1.37
2019-01-26T03:27:49.411Z,1.90
2019-01-26T03:30:15.417Z,1.33
2019-01-26T03:32:41.372Z,1.70
2019-01-26T03:35:07.352Z,1.37
2019-01-26T03:37:33.325Z,1.73
2019-01-26T03:39:59.275Z,2.23
2019-01-26T03:42:25.251Z,1.20
2019-01-26T03:44:51.215Z,1.40
2019-01-26T03:47:17.957Z,1.70
2019-01-26T03:49:43.962Z,1.30
2019-01-26T03:52:09.951Z,1.57
2019-01-26T03:54:35.906Z,1.87
2019-01-26T03:57:02.645Z,1.40
2019-01-26T03:59:29.361Z,1.37
2019-01-26T04:01:55.330Z,1.57
2019-01-26T04:04:21.314Z,1.60
2019-01-26T04:06:47.311Z,1.60
2019-01-26T04:09:13.279Z,1.57
2019-01-26T04:11:39.233Z,1.87
2019-01-26T04:14:05.245Z,1.77
2019-01-26T04:16:31.928Z,2.00
2019-01-26T04:18:57.949Z,2.00
2019-01-26T04:21:23.896Z,1.67
2019-01-26T04:23:49.905Z,1.53
2019-01-26T04:26:15.885Z,1.93
2019-01-26T04:28:41.860Z,1.83
2019-01-26T04:31:07.860Z,2.10
2019-01-26T04:33:33.839Z,1.87
2019-01-26T04:36:00.602Z,2.30
2019-01-26T04:38:26.598Z,2.53
2019-01-26T04:40:53.307Z,2.10
2019-01-26T04:43:19.251Z,2.20
2019-01-26T04:45:45.244Z,2.37
2019-01-26T04:48:11.206Z,2.43
2019-01-26T04:50:37.936Z,3.07
2019-01-26T04:53:03.888Z,2.70
2019-01-26T04:55:29.883Z,2.50
2019-01-26T04:57:55.856Z,2.87
2019-01-26T05:00:21.811Z,2.93
2019-01-26T05:02:47.792Z,3.03
2019-01-26T05:05:13.754Z,2.90
2019-01-26T05:07:39.750Z,3.23
2019-01-26T05:10:05.697Z,2.63
2019-01-26T05:12:31.689Z,3.07
2019-01-26T05:14:57.651Z,3.17
2019-01-26T05:17:23.639Z,2.73
2019-01-26T05:19:49.586Z,3.13
2019-01-26T05:22:15.567Z,2.50
2019-01-26T05:24:41.545Z,3.47
2019-01-26T05:27:08.185Z,3.57
2019-01-26T05:29:34.911Z,2.87
2019-01-26T05:32:00.892Z,2.77
2019-01-26T05:34:26.862Z,3.17
2019-01-26T05:36:52.841Z,3.07
2019-01-26T05:39:20.056Z,2.90
2019-01-26T05:41:44.853Z,2.70
2019-01-26T05:44:11.598Z,2.57
2019-01-26T05:46:38.305Z,3.10
2019-01-26T05:49:04.294Z,2.90
2019-01-26T05:51:30.258Z,2.87
2019-01-26T05:53:56.250Z,2.90
2019-01-26T05:56:22.237Z,2.80
2019-01-26T05:58:48.963Z,2.70
2019-01-26T06:01:14.904Z,3.67
2019-01-26T06:03:40.868Z,2.83
2019-01-26T06:06:06.854Z,2.70
2019-01-26T06:08:32.813Z,2.90
2019-01-26T06:10:58.822Z,2.83
2019-01-26T06:13:24.787Z,2.93
2019-01-26T06:15:50.774Z,3.03
2019-01-26T06:18:17.068Z,2.70
2019-01-26T06:20:42.809Z,3.10
2019-01-26T06:23:08.755Z,2.90
2019-01-26T06:25:34.734Z,2.97
2019-01-26T06:28:00.707Z,2.60
2019-01-26T06:30:26.676Z,2.53
2019-01-26T06:32:53.402Z,1.83
2019-01-26T06:35:20.110Z,2.40
2019-01-26T06:37:46.097Z,3.13
2019-01-26T06:40:12.053Z,2.67
2019-01-26T06:42:38.025Z,2.27
2019-01-26T06:45:04.731Z,2.13
2019-01-26T06:47:30.711Z,2.43
2019-01-26T06:49:56.658Z,2.63
2019-01-26T06:52:22.643Z,2.07
2019-01-26T06:54:48.604Z,2.63
2019-01-26T06:57:14.563Z,2.57
2019-01-26T06:59:41.280Z,2.80
2019-01-26T07:02:07.214Z,2.50
2019-01-26T07:04:33.189Z,2.57
2019-01-26T07:06:59.137Z,2.50
2019-01-26T07:09:25.116Z,2.67
2019-01-26T07:11:51.081Z,2.80
2019-01-26T07:14:17.090Z,2.43
2019-01-26T07:16:43.048Z,2.30
2019-01-26T07:19:09.792Z,2.83
2019-01-26T07:21:36.513Z,2.57
2019-01-26T07:24:02.508Z,2.77
2019-01-26T07:26:28.483Z,2.70
2019-01-26T07:28:54.452Z,2.67
2019-01-26T07:31:20.427Z,2.90
2019-01-26T07:33:46.382Z,2.60
2019-01-26T07:36:12.349Z,2.63
2019-01-26T07:38:38.299Z,2.37
2019-01-26T07:41:04.293Z,2.27
2019-01-26T07:43:30.239Z,2.93
2019-01-26T07:45:56.223Z,2.60
2019-01-26T07:48:22.192Z,2.90
2019-01-26T07:50:48.926Z,2.77
2019-01-26T07:53:14.881Z,2.97
2019-01-26T07:55:40.843Z,3.33
2019-01-26T07:58:06.842Z,2.57
2019-01-26T08:00:32.814Z,2.63
2019-01-26T08:02:59.535Z,3.10
2019-01-26T08:05:25.513Z,2.43
2019-01-26T08:07:51.502Z,3.10
2019-01-26T08:10:18.211Z,2.97
2019-01-26T08:12:44.217Z,2.90
2019-01-26T08:15:10.199Z,2.77
2019-01-26T08:17:36.943Z,3.53
2019-01-26T08:20:02.918Z,3.47
2019-01-26T08:22:28.896Z,2.90
2019-01-26T08:24:55.590Z,3.50
2019-01-26T08:27:21.553Z,2.83
2019-01-26T08:29:48.299Z,3.63
2019-01-26T08:32:14.264Z,3.70
2019-01-26T08:34:40.298Z,3.50
2019-01-26T08:37:07.031Z,3.50
2019-01-26T08:39:33.011Z,3.93
2019-01-26T08:41:58.980Z,3.20
2019-01-26T08:44:24.971Z,3.23
2019-01-26T08:46:50.931Z,3.70
2019-01-26T08:49:16.901Z,3.40
2019-01-26T08:51:42.879Z,3.40
2019-01-26T08:54:08.877Z,3.07
2019-01-26T08:56:34.836Z,3.30
2019-01-26T08:59:01.578Z,3.93
2019-01-26T09:01:27.562Z,3.13
2019-01-26T09:03:54.261Z,4.00
2019-01-26T09:06:20.972Z,3.50
2019-01-26T09:08:46.938Z,3.50
2019-01-26T09:11:12.903Z,3.93
2019-01-26T09:13:38.858Z,3.97
2019-01-26T09:16:05.591Z,4.17
2019-01-26T09:18:38.575Z,3.40
2019-01-26T09:20:58.625Z,2.93
2019-01-26T09:23:24.590Z,3.20
2019-01-26T09:25:51.305Z,2.93
2019-01-26T09:28:17.242Z,3.43
2019-01-26T09:30:43.218Z,3.87
2019-01-26T09:33:09.177Z,3.37
2019-01-26T09:35:35.158Z,3.10
2019-01-26T09:38:01.105Z,3.67
2019-01-26T09:40:27.097Z,2.93
2019-01-26T09:42:53.057Z,3.07
2019-01-26T09:45:19.087Z,2.73
2019-01-26T09:47:45.037Z,3.33
2019-01-26T09:50:11.727Z,3.03
2019-01-26T09:52:37.711Z,3.20
2019-01-26T09:55:03.668Z,2.90
2019-01-26T09:57:29.679Z,3.20
2019-01-26T09:59:55.629Z,3.10
2019-01-26T10:02:21.615Z,3.53
2019-01-26T10:04:47.564Z,3.20
2019-01-26T10:07:13.542Z,2.60
2019-01-26T10:09:39.502Z,2.90
2019-01-26T10:12:05.476Z,3.07
2019-01-26T10:14:32.179Z,2.97
2019-01-26T10:16:58.150Z,2.73
2019-01-26T10:19:24.111Z,2.80
2019-01-26T10:21:50.056Z,2.40
2019-01-26T10:24:16.033Z,2.50
2019-01-26T10:26:42.008Z,2.40
2019-01-26T10:29:07.992Z,2.20
2019-01-26T10:31:33.947Z,2.67
2019-01-26T10:33:59.936Z,2.40
2019-01-26T10:36:25.913Z,2.33
2019-01-26T10:38:51.883Z,2.17
2019-01-26T10:41:17.848Z,2.67
2019-01-26T10:43:43.846Z,2.50
2019-01-26T10:46:09.801Z,2.60
2019-01-26T10:48:35.782Z,1.87
2019-01-26T10:51:01.752Z,1.93
2019-01-26T10:53:28.450Z,2.30
2019-01-26T10:55:54.433Z,2.73
2019-01-26T10:58:20.388Z,3.07
2019-01-26T11:00:46.382Z,2.07
2019-01-26T11:03:12.349Z,2.63
2019-01-26T11:05:38.342Z,2.43
2019-01-26T11:08:04.312Z,2.50
2019-01-26T11:10:30.307Z,2.40
2019-01-26T11:12:57.067Z,2.27
2019-01-26T11:15:23.060Z,2.37
2019-01-26T11:17:49.038Z,2.37
2019-01-26T11:20:15.774Z,2.30
2019-01-26T11:22:41.759Z,2.57
2019-01-26T11:25:07.727Z,2.57
2019-01-26T11:27:34.464Z,2.07
2019-01-26T11:30:01.176Z,2.07
2019-01-26T11:32:27.176Z,2.57
2019-01-26T11:34:53.133Z,2.00
2019-01-26T11:37:19.142Z,2.00
2019-01-26T11:39:45.107Z,2.30
2019-01-26T11:42:11.834Z,2.20
2019-01-26T11:44:38.513Z,1.67
2019-01-26T11:47:04.496Z,1.80
2019-01-26T11:49:31.211Z,2.27
2019-01-26T11:51:57.205Z,1.83
2019-01-26T11:54:23.196Z,2.10
2019-01-26T11:56:49.922Z,1.73
2019-01-26T11:59:16.656Z,1.87
2019-01-26T12:01:42.609Z,2.20
2019-01-26T12:04:08.588Z,2.20
2019-01-26T12:06:34.551Z,2.20
2019-01-26T12:09:01.261Z,2.10
2019-01-26T12:11:27.975Z,1.73
2019-01-26T12:13:53.972Z,2.30
2019-01-26T12:16:26.705Z,2.37
2019-01-26T12:18:45.957Z,2.60
2019-01-26T12:21:11.927Z,1.73
2019-01-26T12:23:38.000Z,2.43
2019-01-26T12:26:03.964Z,2.40
2019-01-26T12:28:30.655Z,2.77
2019-01-26T12:30:56.627Z,2.50
2019-01-26T12:33:22.605Z,2.40
2019-01-26T12:35:48.576Z,2.57
2019-01-26T12:38:14.594Z,2.87
2019-01-26T12:40:41.316Z,2.50
2019-01-26T12:43:07.275Z,2.93
2019-01-26T12:45:33.291Z,3.27
2019-01-26T12:47:59.301Z,3.17
2019-01-26T12:50:26.005Z,3.33
2019-01-26T12:52:51.985Z,3.47
2019-01-26T12:55:17.978Z,3.93
2019-01-26T12:57:44.698Z,3.43
2019-01-26T13:00:10.662Z,3.93
2019-01-26T13:02:36.720Z,3.63
2019-01-26T13:05:03.577Z,3.37
2019-01-26T13:07:29.570Z,3.33
2019-01-26T13:09:55.533Z,3.43
2019-01-26T13:12:21.507Z,4.10
2019-01-26T13:14:48.208Z,3.67
2019-01-26T13:17:14.188Z,4.27
2019-01-26T13:19:40.141Z,4.03
2019-01-26T13:22:06.132Z,3.60
2019-01-26T13:24:32.100Z,4.17
2019-01-26T13:26:58.827Z,4.33
2019-01-26T13:29:24.829Z,4.43
2019-01-26T13:31:50.806Z,4.30
2019-01-26T13:34:17.541Z,4.63
2019-01-26T13:36:44.252Z,4.83
2019-01-26T13:39:10.241Z,5.40
2019-01-26T13:41:36.202Z,4.17
2019-01-26T13:44:02.179Z,4.93
2019-01-26T13:46:28.135Z,5.13
2019-01-26T13:48:54.146Z,4.57
2019-01-26T13:51:20.114Z,5.17
2019-01-26T13:53:46.846Z,5.27
2019-01-26T13:56:12.783Z,4.70
2019-01-26T13:58:39.729Z,5.30
2019-01-26T14:01:06.431Z,5.10
2019-01-26T14:03:32.412Z,5.50
2019-01-26T14:05:58.396Z,6.10
2019-01-26T14:08:24.341Z,5.63
2019-01-26T14:10:50.319Z,5.50
2019-01-26T14:13:16.289Z,5.67
2019-01-26T14:15:42.290Z,5.30
2019-01-26T14:18:08.975Z,4.70
2019-01-26T14:20:34.961Z,4.83
2019-01-26T14:23:01.648Z,4.83
2019-01-26T14:25:27.631Z,5.07
2019-01-26T14:27:53.616Z,5.17
2019-01-26T14:30:19.671Z,5.87
2019-01-26T14:32:52.321Z,4.80
2019-01-26T14:35:12.393Z,5.13
2019-01-26T14:37:38.381Z,6.33
2019-01-26T14:40:04.330Z,5.10
2019-01-26T14:42:37.321Z,5.17
2019-01-26T14:45:03.282Z,5.83
2019-01-26T14:47:29.250Z,4.63
2019-01-26T14:49:58.577Z,5.07
2019-01-26T14:52:21.312Z,4.67
2019-01-26T14:54:47.412Z,4.90
2019-01-26T14:57:13.394Z,5.43
2019-01-26T14:59:39.353Z,4.77
2019-01-26T15:02:05.334Z,4.70
2019-01-26T15:04:32.051Z,5.63
2019-01-26T15:06:58.058Z,5.60
2019-01-26T15:09:24.022Z,4.63
2019-01-26T15:11:49.987Z,5.23
2019-01-26T15:14:15.964Z,3.80
2019-01-26T15:16:41.920Z,4.43
2019-01-26T15:19:07.931Z,4.70
2019-01-26T15:21:34.627Z,4.03
2019-01-26T15:24:00.600Z,4.10
2019-01-26T15:26:27.318Z,3.97
2019-01-26T15:28:54.436Z,4.40
2019-01-26T15:31:19.365Z,4.43
2019-01-26T15:33:45.344Z,4.23
2019-01-26T15:36:11.297Z,4.83
2019-01-26T15:38:37.287Z,4.37
2019-01-26T15:41:03.235Z,4.80
2019-01-26T15:43:29.182Z,3.87
2019-01-26T15:45:55.897Z,4.53
2019-01-26T15:48:21.879Z,5.00
2019-01-26T15:50:47.866Z,5.57
2019-01-26T15:53:14.557Z,5.53
2019-01-26T15:55:40.544Z,6.33
2019-01-26T15:58:06.516Z,5.37
2019-01-26T16:00:32.507Z,5.63
2019-01-26T16:02:58.484Z,5.43
2019-01-26T16:05:24.479Z,5.37
2019-01-26T16:07:50.461Z,5.30
2019-01-26T16:10:16.456Z,5.87
2019-01-26T16:12:42.420Z,6.17
2019-01-26T16:15:09.801Z,6.93
2019-01-26T16:17:35.166Z,6.03
2019-01-26T16:20:01.171Z,7.17
2019-01-26T16:22:27.903Z,7.33
2019-01-26T16:24:53.879Z,7.13
2019-01-26T16:27:19.887Z,6.80
2019-01-26T16:29:45.909Z,7.30
2019-01-26T16:32:11.898Z,7.50
2019-01-26T16:34:37.844Z,7.97
2019-01-26T16:37:04.588Z,7.77
2019-01-26T16:39:31.284Z,7.70
2019-01-26T16:41:57.289Z,7.33
2019-01-26T16:44:23.272Z,7.70
2019-01-26T16:46:49.239Z,8.40
2019-01-26T16:49:15.244Z,7.17
2019-01-26T16:51:41.213Z,6.80
2019-01-26T16:54:07.205Z,8.37
2019-01-26T16:56:33.192Z,7.13
2019-01-26T16:58:59.914Z,7.30
2019-01-26T17:01:26.628Z,7.50
2019-01-26T17:03:52.618Z,7.17
2019-01-26T17:06:18.586Z,7.90
2019-01-26T17:08:44.561Z,6.70
2019-01-26T17:11:10.573Z,7.67
2019-01-26T17:13:36.589Z,7.47
2019-01-26T17:16:02.588Z,7.07
2019-01-26T17:18:29.274Z,7.20
2019-01-26T17:20:55.276Z,6.73
2019-01-26T17:23:21.267Z,6.50
2019-01-26T17:25:47.248Z,7.70
2019-01-26T17:28:13.237Z,7.33
2019-01-26T17:30:39.931Z,6.90
2019-01-26T17:33:07.530Z,8.13
2019-01-26T17:35:32.724Z,7.40
2019-01-26T17:37:58.746Z,7.47
2019-01-26T17:40:25.455Z,6.83
2019-01-26T17:42:51.453Z,7.67
2019-01-26T17:45:17.411Z,7.97
2019-01-26T17:47:43.407Z,7.03
2019-01-26T17:50:09.369Z,6.10
2019-01-26T17:52:40.402Z,6.40
2019-01-26T17:55:02.126Z,6.03
2019-01-26T17:57:28.124Z,5.93
2019-01-26T17:59:54.087Z,4.90
2019-01-26T18:02:20.054Z,5.80
2019-01-26T18:04:46.784Z,5.70
2019-01-26T18:07:12.744Z,5.07
2019-01-26T18:09:38.934Z,5.60
2019-01-26T18:12:05.035Z,4.93
2019-01-26T18:14:31.811Z,4.87
2019-01-26T18:16:57.809Z,5.27
2019-01-26T18:19:23.845Z,5.67
2019-01-26T18:21:49.817Z,4.10
2019-01-26T18:24:15.788Z,4.53
2019-01-26T18:26:41.767Z,4.50
2019-01-26T18:29:07.739Z,4.57
2019-01-26T18:31:33.727Z,4.07
2019-01-26T18:34:00.456Z,4.77
2019-01-26T18:36:26.494Z,3.07
2019-01-26T18:38:53.193Z,4.43
2019-01-26T18:41:19.183Z,4.50
2019-01-26T18:43:45.151Z,4.73
2019-01-26T18:46:11.129Z,3.80
2019-01-26T18:48:37.097Z,3.87
2019-01-26T18:51:03.087Z,3.70
2019-01-26T18:53:29.089Z,4.30
2019-01-26T18:55:55.073Z,4.00
2019-01-26T18:58:21.072Z,4.40
2019-01-26T19:00:47.035Z,4.97
2019-01-26T19:03:13.777Z,4.30
2019-01-26T19:05:40.477Z,4.30
2019-01-26T19:08:06.509Z,4.13
2019-01-26T19:10:32.465Z,4.57
2019-01-26T19:12:59.198Z,5.00
2019-01-26T19:15:25.162Z,5.40
2019-01-26T19:17:51.175Z,5.90
2019-01-26T19:20:17.140Z,4.83
2019-01-26T19:22:43.118Z,5.63
2019-01-26T19:25:09.072Z,4.70
2019-01-26T19:27:35.064Z,5.33
2019-01-26T19:30:01.056Z,5.70
2019-01-26T19:32:27.071Z,5.93
2019-01-26T19:34:53.038Z,6.30
2019-01-26T19:37:19.073Z,6.27
2019-01-26T19:39:45.063Z,6.07
2019-01-26T19:42:11.780Z,5.70
2019-01-26T19:44:37.794Z,7.03
2019-01-26T19:47:03.743Z,6.80
2019-01-26T19:49:30.500Z,6.37
2019-01-26T19:51:56.489Z,6.10
2019-01-26T19:54:22.478Z,6.30
2019-01-26T19:56:48.443Z,6.30
2019-01-26T19:59:14.422Z,6.53
2019-01-26T20:01:40.386Z,6.63
2019-01-26T20:04:06.386Z,5.93
2019-01-26T20:06:32.357Z,6.53
2019-01-26T20:08:58.372Z,6.60
2019-01-26T20:11:25.076Z,6.73
2019-01-26T20:13:51.072Z,6.73
2019-01-26T20:16:17.021Z,6.73
2019-01-26T20:18:43.034Z,6.37
2019-01-26T20:21:09.022Z,6.67
2019-01-26T20:23:35.038Z,7.23
2019-01-26T20:26:01.781Z,6.93
2019-01-26T20:28:27.765Z,7.03
2019-01-26T20:30:53.774Z,7.00
2019-01-26T20:33:19.735Z,6.60
2019-01-26T20:35:46.490Z,6.07
2019-01-26T20:38:13.211Z,6.70
2019-01-26T20:40:39.928Z,7.63
2019-01-26T20:43:05.908Z,7.93
2019-01-26T20:45:31.903Z,7.53
2019-01-26T20:47:57.871Z,7.23
2019-01-26T20:50:23.973Z,6.73
2019-01-26T20:52:50.019Z,7.63
2019-01-26T20:55:16.045Z,8.03
2019-01-26T20:57:42.828Z,7.57
2019-01-26T21:00:08.815Z,8.23
2019-01-26T21:02:34.818Z,6.77
2019-01-26T21:05:00.785Z,8.30
2019-01-26T21:07:26.782Z,7.77
2019-01-26T21:09:52.768Z,6.53
2019-01-26T21:12:18.790Z,8.27
2019-01-26T21:14:44.778Z,7.03
2019-01-26T21:17:10.770Z,9.17
2019-01-26T21:19:36.769Z,8.03
2019-01-26T21:22:02.783Z,7.17
2019-01-26T21:24:29.514Z,7.87
2019-01-26T21:26:56.209Z,7.13
2019-01-26T21:29:22.213Z,8.60
2019-01-26T21:31:48.189Z,8.17
2019-01-26T21:34:14.178Z,6.93
2019-01-26T21:36:40.163Z,7.73
2019-01-26T21:39:06.174Z,8.00
2019-01-26T21:41:32.871Z,7.77
2019-01-26T21:43:58.867Z,8.50
2019-01-26T21:46:24.827Z,7.77
2019-01-26T21:48:50.840Z,7.60
2019-01-26T21:51:16.801Z,7.10
2019-01-26T21:53:43.516Z,6.27
2019-01-26T21:56:09.490Z,7.10
2019-01-26T21:58:35.443Z,6.10
2019-01-26T22:01:01.433Z,6.70
2019-01-26T22:03:27.388Z,6.80
2019-01-26T22:05:53.398Z,6.20
2019-01-26T22:08:19.367Z,6.27
2019-01-26T22:10:46.106Z,7.10
2019-01-26T22:13:12.823Z,6.13
2019-01-26T22:15:38.820Z,6.77
2019-01-26T22:18:04.787Z,6.20
2019-01-26T22:20:30.767Z,6.37
2019-01-26T22:22:56.730Z,6.10
2019-01-26T22:25:22.731Z,5.67
2019-01-26T22:27:48.681Z,7.07
2019-01-26T22:30:15.394Z,6.40
2019-01-26T22:32:41.390Z,5.77
2019-01-26T22:35:07.345Z,6.43
2019-01-26T22:37:33.335Z,6.47
2019-01-26T22:39:59.316Z,5.87
2019-01-26T22:42:26.044Z,5.93
2019-01-26T22:44:52.018Z,5.67
2019-01-26T22:47:18.009Z,5.27
2019-01-26T22:49:44.715Z,6.03
2019-01-26T22:52:10.688Z,5.57
2019-01-26T22:54:36.639Z,5.13
2019-01-26T22:57:02.678Z,6.43
2019-01-26T22:59:28.671Z,5.37
2019-01-26T23:01:54.652Z,6.23
2019-01-26T23:04:21.378Z,6.00
2019-01-26T23:06:47.328Z,5.73
2019-01-26T23:09:14.056Z,5.67
2019-01-26T23:11:40.006Z,6.17
2019-01-26T23:14:06.028Z,6.27
2019-01-26T23:16:32.016Z,4.70
2019-01-26T23:18:58.007Z,4.97
2019-01-26T23:21:23.986Z,6.80
2019-01-26T23:23:50.752Z,5.47
2019-01-26T23:26:16.735Z,5.40
2019-01-26T23:28:43.474Z,6.67
2019-01-26T23:31:10.230Z,5.60
2019-01-26T23:33:36.228Z,6.03
2019-01-26T23:36:02.239Z,5.20
2019-01-26T23:38:28.204Z,6.90
2019-01-26T23:40:54.929Z,6.10
2019-01-26T23:43:21.641Z,5.73
2019-01-26T23:45:47.650Z,5.73
2019-01-26T23:48:13.634Z,5.87
2019-01-26T23:50:39.666Z,5.93
2019-01-26T23:53:05.652Z,5.53
2019-01-26T23:55:31.603Z,5.40
2019-01-26T23:57:58.317Z,5.10
